createdAt,value
2018-01-15T00:00:18.962Z,10.7
2018-01-15T00:02:18.690Z,10.4
2018-01-15T00:04:19.422Z,10.5
2018-01-15T00:06:19.133Z,9.3
2018-01-15T00:08:18.852Z,12.1
2018-01-15T00:10:19.044Z,10.5
2018-01-15T00:12:18.788Z,9.2
2018-01-15T00:14:18.539Z,10.5
2018-01-15T00:16:18.669Z,10.6
2018-01-15T00:18:18.481Z,10.2
2018-01-15T00:20:19.304Z,9.7
2018-01-15T00:22:19.047Z,11.6
2018-01-15T00:24:18.780Z,11.3
2018-01-15T00:26:19.439Z,9.7
2018-01-15T00:28:19.196Z,10.9
2018-01-15T00:30:18.934Z,10
2018-01-15T00:32:18.696Z,11.3
2018-01-15T00:34:19.476Z,10.8
2018-01-15T00:36:18.525Z,10.6
2018-01-15T00:38:19.270Z,8.9
2018-01-15T00:40:18.535Z,10.8
2018-01-15T00:42:19.274Z,11.2
2018-01-15T00:44:19.012Z,10.5
2018-01-15T00:46:18.918Z,11.7
2018-01-15T00:48:18.669Z,12.7
2018-01-15T00:50:19.398Z,10.7
2018-01-15T00:52:19.031Z,11.3
2018-01-15T00:54:18.785Z,10.5
2018-01-15T00:56:19.123Z,10.1
2018-01-15T00:58:18.847Z,11.1
2018-01-15T01:00:18.603Z,11.3
2018-01-15T01:02:19.326Z,10.1
2018-01-15T01:04:19.084Z,9.8
2018-01-15T01:06:19.046Z,11.3
2018-01-15T01:08:18.807Z,11.9
2018-01-15T01:10:19.146Z,11.4
2018-01-15T01:12:18.900Z,12.8
2018-01-15T01:14:18.640Z,11.5
2018-01-15T01:16:19.028Z,11.4
2018-01-15T01:18:18.870Z,10.6
2018-01-15T01:20:18.609Z,11.1
2018-01-15T01:22:19.236Z,11.2
2018-01-15T01:24:18.976Z,11.6
2018-01-15T01:26:18.550Z,10.9
2018-01-15T01:28:19.287Z,13.4
2018-01-15T01:30:19.049Z,11.7
2018-01-15T01:32:19.151Z,11.2
2018-01-15T01:34:18.880Z,12.1
2018-01-15T01:36:18.914Z,12.2
2018-01-15T01:38:18.668Z,11.8
2018-01-15T01:40:18.909Z,11.6
2018-01-15T01:42:18.662Z,12.2
2018-01-15T01:44:19.393Z,11.5
2018-01-15T01:46:18.605Z,10
2018-01-15T01:48:19.345Z,11.5
2018-01-15T01:50:19.114Z,11.1
2018-01-15T01:52:19.180Z,12.3
2018-01-15T01:54:18.931Z,11.6
2018-01-15T01:56:19.185Z,11.9
2018-01-15T01:58:18.926Z,12.3
2018-01-15T02:00:18.703Z,10.5
2018-01-15T02:02:19.425Z,10.7
2018-01-15T02:04:19.179Z,11
2018-01-15T02:06:18.579Z,11.1
2018-01-15T02:08:19.345Z,10.4
2018-01-15T02:10:18.527Z,11.8
2018-01-15T02:12:19.173Z,10.7
2018-01-15T02:14:18.925Z,10.5
2018-01-15T02:16:19.027Z,12.2
2018-01-15T02:18:18.812Z,12.5
2018-01-15T02:20:18.587Z,11.6
2018-01-15T02:22:19.328Z,12.2
2018-01-15T02:24:19.080Z,13.1
2018-01-15T02:26:19.434Z,12.9
2018-01-15T02:28:19.166Z,11.2
2018-01-15T02:30:18.916Z,13.5
2018-01-15T02:32:18.672Z,10.6
2018-01-15T02:34:19.404Z,12
2018-01-15T02:36:18.797Z,12.8
2018-01-15T02:38:18.539Z,11.4
2018-01-15T02:40:18.780Z,12.4
2018-01-15T02:42:18.592Z,11.3
2018-01-15T02:44:19.358Z,12.6
2018-01-15T02:46:18.742Z,12.7
2018-01-15T02:48:18.515Z,12.6
2018-01-15T02:50:19.348Z,14.2
2018-01-15T02:52:19.117Z,11.5
2018-01-15T02:54:18.869Z,10.9
2018-01-15T02:56:18.780Z,13.1
2018-01-15T02:58:18.568Z,10.9
2018-01-15T03:00:19.326Z,12.8
2018-01-15T03:02:19.072Z,11.4
2018-01-15T03:04:18.813Z,12.4
2018-01-15T03:06:19.307Z,12.5
2018-01-15T03:08:19.051Z,12
2018-01-15T03:10:19.256Z,11.7
2018-01-15T03:12:18.985Z,12.2
2018-01-15T03:14:18.753Z,12.3
2018-01-15T03:16:19.254Z,11.8
2018-01-15T03:18:19.049Z,12.6
2018-01-15T03:20:18.800Z,14.3
2018-01-15T03:22:18.559Z,11.8
2018-01-15T03:24:19.332Z,11.9
2018-01-15T03:26:18.927Z,11.5
2018-01-15T03:28:18.665Z,12.4
2018-01-15T03:30:19.420Z,12.6
2018-01-15T03:32:19.164Z,12.7
2018-01-15T03:34:18.938Z,11.2
2018-01-15T03:36:19.312Z,11.6
2018-01-15T03:38:19.054Z,14.1
2018-01-15T03:40:19.297Z,11.4
2018-01-15T03:42:19.032Z,13.6
2018-01-15T03:44:18.755Z,12.4
2018-01-15T03:46:19.001Z,12.5
2018-01-15T03:48:18.736Z,12.4
2018-01-15T03:50:18.501Z,12.6
2018-01-15T03:52:19.091Z,12.8
2018-01-15T03:54:18.835Z,13.5
2018-01-15T03:56:18.965Z,12.7
2018-01-15T03:58:18.701Z,12
2018-01-15T04:00:19.460Z,12.1
2018-01-15T04:02:19.193Z,11.8
2018-01-15T04:04:18.917Z,12.8
2018-01-15T04:06:18.967Z,11.2
2018-01-15T04:08:18.726Z,12.8
2018-01-15T04:10:18.965Z,11.1
2018-01-15T04:12:18.657Z,11.8
2018-01-15T04:14:19.381Z,12.9
2018-01-15T04:16:18.664Z,12.8
2018-01-15T04:18:18.511Z,12.4
2018-01-15T04:20:19.259Z,12.3
2018-01-15T04:22:18.969Z,12.3
2018-01-15T04:24:18.709Z,11.2
2018-01-15T04:26:18.539Z,11.3
2018-01-15T04:28:19.285Z,13.6
2018-01-15T04:30:19.052Z,12.4
2018-01-15T04:32:18.783Z,12.6
2018-01-15T04:34:18.518Z,11.5
2018-01-15T04:36:18.857Z,13
2018-01-15T04:38:18.611Z,10.7
2018-01-15T04:40:18.792Z,10.8
2018-01-15T04:42:19.304Z,13
2018-01-15T04:44:19.046Z,10.8
2018-01-15T04:46:18.772Z,11.1
2018-01-15T04:48:18.490Z,12.6
2018-01-15T04:50:19.217Z,12.4
2018-01-15T04:52:18.937Z,13.3
2018-01-15T04:54:18.680Z,12.2
2018-01-15T04:56:18.797Z,12.3
2018-01-15T04:58:18.547Z,13.1
2018-01-15T05:00:19.286Z,13.1
2018-01-15T05:02:19.006Z,11
2018-01-15T05:04:18.739Z,13.5
2018-01-15T05:06:18.608Z,13.8
2018-01-15T05:08:19.345Z,12.1
2018-01-15T05:10:18.648Z,12.2
2018-01-15T05:12:19.374Z,10.8
2018-01-15T05:14:19.125Z,11.9
2018-01-15T05:16:19.081Z,13.1
2018-01-15T05:18:18.880Z,12
2018-01-15T05:20:18.622Z,12.1
2018-01-15T05:22:19.349Z,12.1
2018-01-15T05:24:19.086Z,12.8
2018-01-15T05:26:19.465Z,13.1
2018-01-15T05:28:19.203Z,13.7
2018-01-15T05:30:18.960Z,12.2
2018-01-15T05:32:18.681Z,13.6
2018-01-15T05:34:19.401Z,11.2
2018-01-15T05:36:18.888Z,12
2018-01-15T05:38:18.632Z,13.1
2018-01-15T05:40:18.842Z,12.4
2018-01-15T05:42:18.569Z,12.3
2018-01-15T05:44:19.281Z,12.3
2018-01-15T05:46:18.607Z,12.1
2018-01-15T05:48:19.348Z,12.6
2018-01-15T05:50:19.166Z,14.7
2018-01-15T05:52:18.610Z,11.4
2018-01-15T05:54:19.377Z,12
2018-01-15T05:56:19.455Z,13.2
2018-01-15T05:58:19.161Z,12.6
2018-01-15T06:00:18.903Z,12.9
2018-01-15T06:02:18.498Z,13.5
2018-01-15T06:04:19.233Z,12.3
2018-01-15T06:06:18.649Z,12.7
2018-01-15T06:08:19.384Z,12.1
2018-01-15T06:10:18.595Z,12.7
2018-01-15T06:12:19.369Z,11.6
2018-01-15T06:14:19.104Z,12.3
2018-01-15T06:16:18.711Z,12
2018-01-15T06:18:18.508Z,12.1
2018-01-15T06:20:19.266Z,12.9
2018-01-15T06:22:19.019Z,12.5
2018-01-15T06:24:18.748Z,13.1
2018-01-15T06:26:18.722Z,13.2
2018-01-15T06:28:18.496Z,12.1
2018-01-15T06:30:19.418Z,13.6
2018-01-15T06:32:19.147Z,12.4
2018-01-15T06:34:18.878Z,12.2
2018-01-15T06:36:19.260Z,13.8
2018-01-15T06:38:18.967Z,13.8
2018-01-15T06:40:19.198Z,11.3
2018-01-15T06:42:18.926Z,11.3
2018-01-15T06:44:18.656Z,14
2018-01-15T06:46:19.264Z,13.5
2018-01-15T06:48:18.992Z,12.4
2018-01-15T06:50:18.737Z,11.3
2018-01-15T06:52:18.482Z,12.4
2018-01-15T06:54:19.215Z,12.2
2018-01-15T06:56:18.477Z,11.8
2018-01-15T06:58:19.231Z,13
2018-01-15T07:00:18.988Z,10.2
2018-01-15T07:02:19.054Z,11.7
2018-01-15T07:04:18.820Z,12.4
2018-01-15T07:06:19.354Z,12.2
2018-01-15T07:08:19.076Z,13.1
2018-01-15T07:10:19.252Z,11.3
2018-01-15T07:12:18.988Z,13.5
2018-01-15T07:14:18.728Z,11
2018-01-15T07:16:18.870Z,11.6
2018-01-15T07:18:18.680Z,11.7
2018-01-15T07:20:19.419Z,12.1
2018-01-15T07:22:19.151Z,12.2
2018-01-15T07:24:18.872Z,13.4
2018-01-15T07:26:19.088Z,13.6
2018-01-15T07:28:18.845Z,11.4
2018-01-15T07:30:18.571Z,12
2018-01-15T07:32:19.291Z,10.8
2018-01-15T07:34:19.040Z,11.9
2018-01-15T07:36:18.681Z,12.8
2018-01-15T07:38:19.422Z,12.7
2018-01-15T07:40:18.636Z,10.1
2018-01-15T07:42:19.364Z,11.1
2018-01-15T07:44:19.108Z,12.1
2018-01-15T07:46:19.172Z,10.9
2018-01-15T07:48:18.929Z,11.8
2018-01-15T07:50:18.702Z,11.7
2018-01-15T07:52:18.530Z,11.5
2018-01-15T07:54:19.277Z,11.7
2018-01-15T07:56:18.777Z,11.4
2018-01-15T07:58:18.511Z,12.6
2018-01-15T08:00:19.257Z,11.3
2018-01-15T08:02:19.421Z,11.1
2018-01-15T08:04:19.159Z,11.5
2018-01-15T08:06:18.891Z,12.1
2018-01-15T08:08:18.649Z,11.1
2018-01-15T08:10:18.961Z,13.4
2018-01-15T08:12:18.714Z,11.5
2018-01-15T08:14:19.448Z,11.7
2018-01-15T08:16:18.477Z,13.5
2018-01-15T08:18:19.273Z,13
2018-01-15T08:20:19.028Z,11.6
2018-01-15T08:22:18.646Z,10.6
2018-01-15T08:24:19.378Z,13
2018-01-15T08:26:18.725Z,11.6
2018-01-15T08:28:18.462Z,11.8
2018-01-15T08:30:19.208Z,10.8
2018-01-15T08:32:18.963Z,11.2
2018-01-15T08:34:18.684Z,12.6
2018-01-15T08:36:18.756Z,10.6
2018-01-15T08:38:18.481Z,11.6
2018-01-15T08:40:18.668Z,11.9
2018-01-15T08:42:19.402Z,12.6
2018-01-15T08:44:19.135Z,9.8
2018-01-15T08:46:18.527Z,10.8
2018-01-15T08:48:19.310Z,10
2018-01-15T08:50:19.081Z,9.7
2018-01-15T08:52:19.170Z,10.5
2018-01-15T08:54:18.894Z,10.6
2018-01-15T08:56:18.760Z,11.2
2018-01-15T08:58:18.500Z,8.8
2018-01-15T09:00:19.258Z,10
2018-01-15T09:02:18.982Z,9.5
2018-01-15T09:04:18.718Z,9.4
2018-01-15T09:06:19.337Z,9.5
2018-01-15T09:08:19.102Z,10.3
2018-01-15T09:10:19.318Z,8.7
2018-01-15T09:12:19.109Z,9.6
2018-01-15T09:14:18.822Z,9.9
2018-01-15T09:16:19.141Z,9.2
2018-01-15T09:18:18.965Z,8.6
2018-01-15T09:20:18.711Z,8.7
2018-01-15T09:22:19.450Z,9.2
2018-01-15T09:24:19.158Z,7.8
2018-01-15T09:26:18.519Z,9.3
2018-01-15T09:28:19.260Z,9.4
2018-01-15T09:30:19.016Z,8.3
2018-01-15T09:32:18.753Z,8.1
2018-01-15T09:34:18.478Z,9
2018-01-15T09:36:18.695Z,9.3
2018-01-15T09:38:19.434Z,8.9
2018-01-15T09:40:18.621Z,7.5
2018-01-15T09:42:19.340Z,7.9
2018-01-15T09:44:19.078Z,7.4
2018-01-15T09:46:19.384Z,9.1
2018-01-15T09:48:19.104Z,7.2
2018-01-15T09:50:18.841Z,7.3
2018-01-15T09:52:18.894Z,8
2018-01-15T09:54:18.650Z,8.1
2018-01-15T09:56:18.816Z,6.1
2018-01-15T09:58:18.544Z,7.1
2018-01-15T10:00:19.314Z,7.2
2018-01-15T10:02:19.052Z,7.5
2018-01-15T10:04:18.787Z,7.7
2018-01-15T10:06:19.354Z,5.9
2018-01-15T10:08:19.072Z,6.9
2018-01-15T10:10:19.277Z,6.8
2018-01-15T10:12:19.026Z,6.3
2018-01-15T10:14:18.765Z,6.8
2018-01-15T10:16:19.311Z,6.3
2018-01-15T10:18:19.119Z,6.7
2018-01-15T10:20:18.875Z,5.7
2018-01-15T10:22:18.612Z,5.8
2018-01-15T10:24:19.358Z,4.7
2018-01-15T10:26:18.716Z,6.3
2018-01-15T10:28:19.457Z,6.1
2018-01-15T10:30:19.284Z,5.3
2018-01-15T10:32:19.044Z,5.1
2018-01-15T10:34:18.778Z,5.3
2018-01-15T10:36:18.850Z,5.5
2018-01-15T10:38:18.609Z,6
2018-01-15T10:40:18.810Z,5.8
2018-01-15T10:42:18.554Z,4.8
2018-01-15T10:44:19.311Z,6.3
2018-01-15T10:46:18.683Z,5.3
2018-01-15T10:48:19.446Z,5
2018-01-15T10:50:19.208Z,5.3
2018-01-15T10:52:18.986Z,6.4
2018-01-15T10:54:18.726Z,5.8
2018-01-15T10:56:19.095Z,5.9
2018-01-15T10:58:18.839Z,6.4
2018-01-15T11:00:18.579Z,6.3
2018-01-15T11:02:19.330Z,5.7
2018-01-15T11:04:19.092Z,4.8
2018-01-15T11:06:19.171Z,5.5
2018-01-15T11:08:18.969Z,6.1
2018-01-15T11:10:19.159Z,4.9
2018-01-15T11:12:18.747Z,5
2018-01-15T11:14:18.476Z,5.4
2018-01-15T11:16:19.236Z,4.7
2018-01-15T11:18:19.093Z,5.3
2018-01-15T11:20:18.894Z,5.5
2018-01-15T11:22:18.621Z,5.4
2018-01-15T11:24:19.357Z,5.6
2018-01-15T11:26:19.085Z,5
2018-01-15T11:28:18.815Z,4.9
2018-01-15T11:30:18.553Z,5.8
2018-01-15T11:32:19.310Z,5.4
2018-01-15T11:34:19.062Z,4.4
2018-01-15T11:36:18.746Z,4.3
2018-01-15T11:38:18.482Z,5.6
2018-01-15T11:40:18.694Z,4.9
2018-01-15T11:42:19.442Z,5.1
2018-01-15T11:44:19.182Z,5.6
2018-01-15T11:46:19.060Z,5
2018-01-15T11:48:18.824Z,5.2
2018-01-15T11:50:18.598Z,4.8
2018-01-15T11:52:19.339Z,4.7
2018-01-15T11:54:19.089Z,3.8
2018-01-15T11:56:19.214Z,6.1
2018-01-15T11:58:18.943Z,4.4
2018-01-15T12:00:18.710Z,6.2
2018-01-15T12:02:19.344Z,5.9
2018-01-15T12:04:19.086Z,5.7
2018-01-15T12:06:19.376Z,5.3
2018-01-15T12:08:19.141Z,5.6
2018-01-15T12:10:19.425Z,6.1
2018-01-15T12:12:19.212Z,5.7
2018-01-15T12:14:18.986Z,5.4
2018-01-15T12:16:18.689Z,5.1
2018-01-15T12:18:18.486Z,6.8
2018-01-15T12:20:19.239Z,7.3
2018-01-15T12:22:19.026Z,4.7
2018-01-15T12:24:18.794Z,5.4
2018-01-15T12:26:18.821Z,5.1
2018-01-15T12:28:18.591Z,5
2018-01-15T12:30:19.327Z,5.1
2018-01-15T12:32:19.048Z,6.3
2018-01-15T12:34:18.792Z,5.5
2018-01-15T12:36:19.312Z,5.1
2018-01-15T12:38:19.086Z,5.4
2018-01-15T12:40:19.308Z,5.1
2018-01-15T12:42:19.075Z,6
2018-01-15T12:44:18.845Z,6.1
2018-01-15T12:46:18.970Z,5.7
2018-01-15T12:48:18.729Z,6.2
2018-01-15T12:50:18.502Z,5.5
2018-01-15T12:52:19.272Z,5.3
2018-01-15T12:54:19.039Z,5.2
2018-01-15T12:56:19.461Z,5.7
2018-01-15T12:58:19.208Z,5.1
2018-01-15T13:00:19.024Z,5.6
2018-01-15T13:02:18.582Z,5.9
2018-01-15T13:04:19.340Z,5
2018-01-15T13:06:19.484Z,4.4
2018-01-15T13:08:19.287Z,6.1
2018-01-15T13:10:18.519Z,6
2018-01-15T13:12:19.255Z,6
2018-01-15T13:14:19.010Z,6.4
2018-01-15T13:16:18.827Z,6.3
2018-01-15T13:18:18.685Z,5.9
2018-01-15T13:20:19.464Z,4.9
2018-01-15T13:22:19.225Z,6.3
2018-01-15T13:24:18.992Z,5.9
2018-01-15T13:26:18.976Z,5.2
2018-01-15T13:28:18.731Z,5.4
2018-01-15T13:30:18.480Z,5
2018-01-15T13:32:19.242Z,5
2018-01-15T13:34:19.010Z,5.2
2018-01-15T13:36:19.366Z,5
2018-01-15T13:38:19.141Z,6
2018-01-15T13:40:19.386Z,5.5
2018-01-15T13:42:19.019Z,4.1
2018-01-15T13:44:18.770Z,5.1
2018-01-15T13:46:19.053Z,5.5
2018-01-15T13:48:18.856Z,5.4
2018-01-15T13:50:18.638Z,5.6
2018-01-15T13:52:19.399Z,4.8
2018-01-15T13:54:19.184Z,5.4
2018-01-15T13:56:18.924Z,5.2
2018-01-15T13:58:18.677Z,5.6
2018-01-15T14:00:19.416Z,5
2018-01-15T14:02:19.184Z,5.6
2018-01-15T14:04:18.925Z,5.6
2018-01-15T14:06:19.330Z,5.7
2018-01-15T14:08:19.107Z,5.7
2018-01-15T14:10:19.337Z,5.5
2018-01-15T14:12:18.898Z,5.2
2018-01-15T14:14:18.661Z,5
2018-01-15T14:16:19.291Z,5
2018-01-15T14:18:19.102Z,4
2018-01-15T14:20:18.862Z,5.7
2018-01-15T14:22:18.608Z,4.8
2018-01-15T14:24:19.362Z,5
2018-01-15T14:26:18.949Z,5.1
2018-01-15T14:28:18.698Z,5
2018-01-15T14:30:19.447Z,6.6
2018-01-15T14:32:19.235Z,4.9
2018-01-15T14:34:19.042Z,5.6
2018-01-15T14:36:18.774Z,5.2
2018-01-15T14:38:18.537Z,5
2018-01-15T14:40:18.929Z,6
2018-01-15T14:42:19.365Z,5.8
2018-01-15T14:44:19.136Z,6.1
2018-01-15T14:46:19.290Z,6.2
2018-01-15T14:48:19.050Z,5.7
2018-01-15T14:50:18.811Z,6.1
2018-01-15T14:52:18.559Z,5.3
2018-01-15T14:54:19.305Z,4.7
2018-01-15T14:56:19.321Z,5
2018-01-15T14:58:19.067Z,5.4
2018-01-15T15:00:18.823Z,6.4
2018-01-15T15:02:18.578Z,5.2
2018-01-15T15:04:19.325Z,6
2018-01-15T15:06:19.064Z,5.2
2018-01-15T15:08:18.838Z,5.4
2018-01-15T15:10:19.103Z,5.3
2018-01-15T15:12:18.855Z,5.7
2018-01-15T15:14:18.610Z,5.7
2018-01-15T15:16:19.492Z,6.6
2018-01-15T15:18:19.311Z,5.1
2018-01-15T15:20:19.101Z,5.2
2018-01-15T15:22:18.860Z,4.9
2018-01-15T15:24:18.611Z,5.7
2018-01-15T15:26:19.371Z,5
2018-01-15T15:28:19.114Z,5.5
2018-01-15T15:30:18.874Z,4.6
2018-01-15T15:32:18.583Z,5.3
2018-01-15T15:34:19.357Z,6.1
2018-01-15T15:36:18.869Z,5.3
2018-01-15T15:38:18.639Z,4.9
2018-01-15T15:40:18.923Z,5.1
2018-01-15T15:42:18.698Z,4.9
2018-01-15T15:44:19.437Z,4.5
2018-01-15T15:46:18.842Z,5
2018-01-15T15:48:18.603Z,4.9
2018-01-15T15:50:19.393Z,5.3
2018-01-15T15:52:19.152Z,5.6
2018-01-15T15:54:18.924Z,4.5
2018-01-15T15:56:18.484Z,5.8
2018-01-15T15:58:19.237Z,5.5
2018-01-15T16:00:19.076Z,4.5
2018-01-15T16:02:18.597Z,4.8
2018-01-15T16:04:19.356Z,5.5
2018-01-15T16:06:18.665Z,5.3
2018-01-15T16:08:19.411Z,5.2
2018-01-15T16:10:18.688Z,4.1
2018-01-15T16:12:19.411Z,5.2
2018-01-15T16:14:19.159Z,5.2
2018-01-15T16:16:19.400Z,5.3
2018-01-15T16:18:19.254Z,6
2018-01-15T16:20:19.007Z,5.6
2018-01-15T16:22:19.051Z,4.7
2018-01-15T16:24:18.784Z,4.2
2018-01-15T16:26:19.442Z,4.9
2018-01-15T16:28:19.189Z,4.9
2018-01-15T16:30:18.947Z,4.6
2018-01-15T16:32:18.558Z,5.6
2018-01-15T16:34:19.271Z,4.9
2018-01-15T16:36:19.006Z,4.6
2018-01-15T16:38:18.743Z,4.9
2018-01-15T16:40:18.950Z,5.2
2018-01-15T16:42:18.666Z,4.7
2018-01-15T16:44:19.391Z,5.2
2018-01-15T16:46:18.520Z,5.1
2018-01-15T16:48:19.278Z,5.4
2018-01-15T16:50:19.055Z,5.3
2018-01-15T16:52:18.847Z,5.6
2018-01-15T16:54:18.602Z,6.5
2018-01-15T16:56:19.218Z,5.5
2018-01-15T16:58:18.964Z,5.6
2018-01-15T17:00:18.728Z,5.5
2018-01-15T17:02:18.890Z,4.4
2018-01-15T17:04:18.640Z,5.5
2018-01-15T17:06:18.764Z,5.1
2018-01-15T17:08:18.550Z,5.5
2018-01-15T17:10:18.781Z,5.5
2018-01-15T17:12:18.530Z,5.3
2018-01-15T17:14:19.326Z,5.6
2018-01-15T17:16:19.386Z,6.4
2018-01-15T17:18:19.198Z,5.4
2018-01-15T17:20:18.982Z,5.7
2018-01-15T17:22:18.619Z,5.1
2018-01-15T17:24:19.410Z,5.4
2018-01-15T17:26:18.543Z,6
2018-01-15T17:28:19.269Z,5.8
2018-01-15T17:30:19.075Z,5.4
2018-01-15T17:32:18.686Z,5.2
2018-01-15T17:34:19.425Z,6.7
2018-01-15T17:36:19.108Z,5.2
2018-01-15T17:38:18.855Z,5.4
2018-01-15T17:40:19.107Z,6.5
2018-01-15T17:42:18.780Z,5.3
2018-01-15T17:44:18.532Z,5.6
2018-01-15T17:46:18.602Z,5.5
2018-01-15T17:48:19.354Z,5.6
2018-01-15T17:50:19.206Z,4.6
2018-01-15T17:52:18.952Z,5
2018-01-15T17:54:18.725Z,6.2
2018-01-15T17:56:18.825Z,5.6
2018-01-15T17:58:18.593Z,4.8
2018-01-15T18:00:19.340Z,5.4
2018-01-15T18:02:19.108Z,5.5
2018-01-15T18:04:18.860Z,5.8
2018-01-15T18:06:19.175Z,5.5
2018-01-15T18:08:18.909Z,6.3
2018-01-15T18:10:19.157Z,4.9
2018-01-15T18:12:18.892Z,5.6
2018-01-15T18:14:18.646Z,5.9
2018-01-15T18:16:18.683Z,5.1
2018-01-15T18:18:18.528Z,6.6
2018-01-15T18:20:19.285Z,5.8
2018-01-15T18:22:18.924Z,5.2
2018-01-15T18:24:18.682Z,6.4
2018-01-15T18:26:18.973Z,6.5
2018-01-15T18:28:18.731Z,6.3
2018-01-15T18:30:18.477Z,6.6
2018-01-15T18:32:19.219Z,5.9
2018-01-15T18:34:18.961Z,6.2
2018-01-15T18:36:18.477Z,4.7
2018-01-15T18:38:19.219Z,6.4
2018-01-15T18:40:19.443Z,5.9
2018-01-15T18:42:19.241Z,6
2018-01-15T18:44:19.035Z,5
2018-01-15T18:46:18.580Z,7.1
2018-01-15T18:48:19.342Z,5.2
2018-01-15T18:50:19.134Z,5.8
2018-01-15T18:52:18.899Z,5.7
2018-01-15T18:54:18.637Z,5.9
2018-01-15T18:56:19.166Z,5.9
2018-01-15T18:58:18.934Z,6.2
2018-01-15T19:00:18.693Z,6.3
2018-01-15T19:02:19.455Z,6.2
2018-01-15T19:04:19.230Z,6.3
2018-01-15T19:06:18.846Z,7.3
2018-01-15T19:08:18.605Z,6.2
2018-01-15T19:10:18.839Z,6.5
2018-01-15T19:12:18.598Z,6.3
2018-01-15T19:14:19.343Z,6.3
2018-01-15T19:16:19.391Z,5.1
2018-01-15T19:18:19.233Z,7.3
2018-01-15T19:20:19.005Z,7
2018-01-15T19:22:18.739Z,7.1
2018-01-15T19:24:18.479Z,5.4
2018-01-15T19:26:18.582Z,7.8
2018-01-15T19:28:19.340Z,6.7
2018-01-15T19:30:19.114Z,6.5
2018-01-15T19:32:18.852Z,6
2018-01-15T19:34:18.593Z,6.2
2018-01-15T19:36:18.738Z,6
2018-01-15T19:38:18.494Z,6.5
2018-01-15T19:40:18.743Z,6.8
2018-01-15T19:42:18.500Z,6.6
2018-01-15T19:44:19.226Z,5.3
2018-01-15T19:46:18.604Z,6.6
2018-01-15T19:48:19.345Z,7.3
2018-01-15T19:50:19.105Z,6.1
2018-01-15T19:52:18.720Z,6.6
2018-01-15T19:54:19.477Z,5.7
2018-01-15T19:56:19.040Z,6.6
2018-01-15T19:58:18.791Z,7.5
2018-01-15T20:00:18.644Z,6.4
2018-01-15T20:02:19.397Z,6.7
2018-01-15T20:04:19.163Z,6.6
2018-01-15T20:06:18.959Z,5.5
2018-01-15T20:08:18.722Z,5.8
2018-01-15T20:10:18.931Z,6.6
2018-01-15T20:12:18.701Z,5.4
2018-01-15T20:14:19.454Z,6.5
2018-01-15T20:16:19.275Z,5.8
2018-01-15T20:18:19.150Z,7.2
2018-01-15T20:20:18.911Z,7.3
2018-01-15T20:22:18.516Z,5.6
2018-01-15T20:24:19.251Z,6.3
2018-01-15T20:26:19.311Z,7.1
2018-01-15T20:28:19.087Z,6.9
2018-01-15T20:30:18.857Z,6.6
2018-01-15T20:32:18.602Z,6.6
2018-01-15T20:34:19.379Z,7
2018-01-15T20:36:18.760Z,7.2
2018-01-15T20:38:18.526Z,6.3
2018-01-15T20:40:18.744Z,6.3
2018-01-15T20:42:18.511Z,6
2018-01-15T20:44:19.277Z,6.3
2018-01-15T20:46:19.341Z,6.4
2018-01-15T20:48:19.085Z,6.4
2018-01-15T20:50:18.841Z,6.5
2018-01-15T20:52:18.592Z,7.1
2018-01-15T20:54:19.336Z,6.8
2018-01-15T20:56:19.379Z,5.3
2018-01-15T20:58:19.117Z,6.4
2018-01-15T21:00:18.901Z,6.2
2018-01-15T21:02:18.649Z,7.3
2018-01-15T21:04:19.421Z,5.6
2018-01-15T21:06:19.031Z,6.4
2018-01-15T21:08:18.789Z,6.6
2018-01-15T21:10:19.054Z,6.7
2018-01-15T21:12:18.780Z,6
2018-01-15T21:14:18.577Z,6.5
2018-01-15T21:16:18.993Z,5.9
2018-01-15T21:18:18.847Z,7.1
2018-01-15T21:20:18.594Z,6.2
2018-01-15T21:22:19.368Z,5.4
2018-01-15T21:24:19.093Z,6.1
2018-01-15T21:26:18.646Z,6.5
2018-01-15T21:28:19.417Z,6.3
2018-01-15T21:30:19.174Z,6.8
2018-01-15T21:32:18.942Z,5.5
2018-01-15T21:34:18.709Z,5.8
2018-01-15T21:36:18.868Z,6.8
2018-01-15T21:38:18.638Z,5.8
2018-01-15T21:40:18.941Z,5.4
2018-01-15T21:42:18.713Z,6.1
2018-01-15T21:44:18.465Z,6.1
2018-01-15T21:46:18.709Z,6.5
2018-01-15T21:48:19.440Z,6.1
2018-01-15T21:50:19.279Z,6.2
2018-01-15T21:52:19.021Z,6.4
2018-01-15T21:54:18.762Z,5.2
2018-01-15T21:56:19.388Z,5.1
2018-01-15T21:58:19.151Z,6.3
2018-01-15T22:00:18.958Z,6.8
2018-01-15T22:02:19.089Z,6.2
2018-01-15T22:04:18.809Z,6.1
2018-01-15T22:06:19.357Z,6.1
2018-01-15T22:08:19.106Z,5.8
2018-01-15T22:10:19.421Z,6.5
2018-01-15T22:12:19.200Z,6
2018-01-15T22:14:18.987Z,6.5
2018-01-15T22:16:19.248Z,6.9
2018-01-15T22:18:19.094Z,6.4
2018-01-15T22:20:18.834Z,6.1
2018-01-15T22:22:18.619Z,5.5
2018-01-15T22:24:19.363Z,5.6
2018-01-15T22:26:18.826Z,6.4
2018-01-15T22:28:18.559Z,6.1
2018-01-15T22:30:19.292Z,6.2
2018-01-15T22:32:19.028Z,6.5
2018-01-15T22:34:18.787Z,6.4
2018-01-15T22:36:19.193Z,5.8
2018-01-15T22:38:18.956Z,6.5
2018-01-15T22:40:19.172Z,6.2
2018-01-15T22:42:18.733Z,6.2
2018-01-15T22:44:18.464Z,6.3
2018-01-15T22:46:18.841Z,6.2
2018-01-15T22:48:18.597Z,5.4
2018-01-15T22:50:19.359Z,6
2018-01-15T22:52:19.124Z,6.9
2018-01-15T22:54:18.890Z,6.6
2018-01-15T22:56:19.298Z,6.6
2018-01-15T22:58:19.059Z,5.1
2018-01-15T23:00:18.792Z,5.7
2018-01-15T23:02:18.542Z,7.1
2018-01-15T23:04:19.327Z,6.9
2018-01-15T23:06:18.671Z,5.8
2018-01-15T23:08:19.416Z,6.8
2018-01-15T23:10:18.619Z,5.3
2018-01-15T23:12:19.355Z,5.4
2018-01-15T23:14:19.115Z,6.3
2018-01-15T23:16:19.342Z,5.7
2018-01-15T23:18:19.152Z,6
2018-01-15T23:20:18.933Z,6.5
2018-01-15T23:22:18.685Z,5.7
2018-01-15T23:24:19.440Z,5.7
2018-01-15T23:26:18.821Z,6.1
2018-01-15T23:28:18.563Z,5.8
2018-01-15T23:30:19.298Z,6.6
2018-01-15T23:32:19.048Z,6.8
2018-01-15T23:34:18.817Z,6
2018-01-15T23:36:18.884Z,5.5
2018-01-15T23:38:18.629Z,7
2018-01-15T23:40:18.829Z,7.5
2018-01-15T23:42:19.469Z,5.6
2018-01-15T23:44:19.228Z,6.1
2018-01-15T23:46:18.844Z,5.9
2018-01-15T23:48:18.620Z,5.3
2018-01-15T23:50:19.365Z,6.1
2018-01-15T23:52:18.493Z,6
2018-01-15T23:54:19.255Z,5.6
2018-01-15T23:56:19.314Z,4.8
2018-01-15T23:58:19.077Z,5.8
